Time;durP1;ratioP1;P1;durP2;ratioP2;P2;SDS_P1;SDS_P2;PMS_P1;PMS_P2;Temp;Humidity;BMP_temperature;BMP_pressure;BME280_temperature;BME280_humidity;BME280_pressure;Samples;Min_cycle;Max_cycle;Signal;HPM_P1;HPM_P2
2021/12/01 00:01:08;;;;;;;9.17;3.80;;;-0.60;99.90;-1.00;95733.00;;;;4938025;28;20486;-73
2021/12/01 00:03:57;;;;;;;7.33;2.53;;;-0.60;99.90;-1.30;95721.00;;;;4945705;29;20514;-72
2021/12/01 00:06:46;;;;;;;3.40;2.93;;;-0.60;99.90;-1.10;95729.00;;;;4945800;28;21005;-73
2021/12/01 00:09:35;;;;;;;3.10;2.80;;;-0.60;99.90;-1.10;95730.00;;;;4944087;29;20497;-73
2021/12/01 00:12:25;;;;;;;3.33;2.87;;;-0.60;99.90;-1.20;95733.00;;;;4946434;28;20455;-73
2021/12/01 00:15:14;;;;;;;7.87;4.00;;;-0.70;99.90;-1.10;95743.00;;;;4943437;29;20977;-73
2021/12/01 00:18:04;;;;;;;3.57;2.70;;;-0.70;99.90;-1.10;95734.00;;;;4945867;29;20443;-73
2021/12/01 00:20:53;;;;;;;4.23;3.33;;;-0.70;99.90;-1.10;95723.00;;;;4945420;28;20462;-73
2021/12/01 00:23:42;;;;;;;5.37;4.33;;;0.00;99.90;-0.90;95730.00;;;;4943377;29;20812;-73
2021/12/01 00:26:31;;;;;;;1.77;1.63;;;-0.70;99.90;-0.80;95737.00;;;;4942658;29;20468;-74
2021/12/01 00:29:21;;;;;;;6.07;4.90;;;-0.50;99.90;-0.90;95727.00;;;;4944134;28;20444;-73
2021/12/01 00:32:10;;;;;;;6.37;4.57;;;-0.40;99.90;-0.90;95732.00;;;;4946633;28;20444;-73
2021/12/01 00:35:01;;;;;;;4.67;4.10;;;-0.40;99.90;-1.00;95735.00;;;;4943042;29;20432;-73
2021/12/01 00:37:50;;;;;;;5.33;4.53;;;-0.50;99.90;-1.20;95747.00;;;;4944366;29;20806;-72
2021/12/01 00:40:40;;;;;;;5.13;4.63;;;-0.50;99.90;-1.00;95767.00;;;;4942768;28;20460;-73
2021/12/01 00:43:28;;;;;;;5.20;4.67;;;-0.50;99.90;-0.80;95729.00;;;;4942941;29;20427;-72
2021/12/01 00:46:23;;;;;;;3.47;2.97;;;-0.50;99.90;-0.60;95735.00;;;;4940544;29;20472;-73
2021/12/01 00:49:12;;;;;;;7.27;5.57;;;-0.40;99.90;-0.40;95749.00;;;;4944053;29;20439;-73
2021/12/01 00:52:01;;;;;;;8.03;6.00;;;-0.30;99.90;-0.30;95760.00;;;;4944346;28;20566;-72
2021/12/01 00:54:50;;;;;;;8.00;5.20;;;-0.20;99.90;-0.40;95756.00;;;;4943373;29;20795;-73
2021/12/01 00:57:39;;;;;;;5.47;3.83;;;0.00;99.90;-1.00;95755.00;;;;4942512;29;20423;-73
2021/12/01 01:00:31;;;;;;;7.13;5.07;;;-0.20;99.90;-0.90;95767.00;;;;4942818;28;20782;-73
2021/12/01 01:03:21;;;;;;;6.60;4.63;;;-0.20;99.90;-0.60;95767.00;;;;4944744;29;20436;-73
2021/12/01 01:06:11;;;;;;;8.50;4.80;;;-0.20;99.90;-0.50;95773.00;;;;4940839;29;20817;-73
2021/12/01 01:09:00;;;;;;;8.13;5.40;;;-0.20;99.90;-0.50;95774.00;;;;4944271;29;20813;-74
2021/12/01 01:18:05;;;;;;;5.07;4.23;;;-0.20;99.90;-0.60;95791.00;;;;4944119;29;20428;-73
2021/12/01 01:20:56;;;;;;;7.70;5.83;;;-0.20;99.90;-0.40;95794.00;;;;4944053;28;21308;-72
2021/12/01 01:23:46;;;;;;;11.70;6.00;;;-0.10;99.90;-0.40;95790.00;;;;4942198;29;20952;-73
2021/12/01 01:26:35;;;;;;;11.67;6.60;;;-0.10;99.90;-0.40;95789.00;;;;4941885;29;20472;-73
2021/12/01 01:29:25;;;;;;;6.70;6.03;;;-0.10;99.90;-0.30;95791.00;;;;4936245;28;20454;-73
2021/12/01 01:32:15;;;;;;;9.23;6.90;;;0.00;99.90;-0.60;95808.00;;;;4936644;28;20690;-72
2021/12/01 01:35:06;;;;;;;6.67;5.97;;;0.00;99.90;-0.70;95807.00;;;;4940500;28;20444;-72
2021/12/01 01:37:56;;;;;;;6.10;5.20;;;-0.10;99.90;-0.50;95803.00;;;;4942443;28;20501;-73
2021/12/01 01:40:46;;;;;;;7.40;6.10;;;-0.10;99.90;-0.40;95802.00;;;;4942808;28;20655;-73
2021/12/01 01:43:36;;;;;;;5.33;4.83;;;0.00;99.90;-0.50;95785.00;;;;4940213;28;20435;-73
2021/12/01 01:46:31;;;;;;;9.93;5.33;;;0.00;99.90;-0.40;95790.00;;;;4940137;28;20443;-72
2021/12/01 01:49:24;;;;;;;6.50;4.63;;;0.00;99.90;-0.40;95783.00;;;;4942405;28;20509;-73
2021/12/01 01:52:13;;;;;;;6.23;4.57;;;0.00;99.90;-0.50;95777.00;;;;4941717;28;20470;-73
2021/12/01 01:55:04;;;;;;;5.93;4.73;;;0.00;99.90;-0.50;95796.00;;;;4940326;28;20813;-72
2021/12/01 01:57:53;;;;;;;4.67;4.23;;;0.00;99.90;-0.60;95794.00;;;;4942619;28;20433;-73
2021/12/01 02:00:49;;;;;;;8.90;4.53;;;-0.10;99.90;-0.70;95806.00;;;;4939872;28;20831;-74
2021/12/01 02:03:41;;;;;;;8.73;4.40;;;-0.10;99.90;-0.60;95790.00;;;;4940060;28;20431;-73
2021/12/01 02:06:31;;;;;;;5.23;3.47;;;-0.10;99.90;-0.70;95789.00;;;;4934744;28;20425;-73
2021/12/01 02:09:23;;;;;;;5.73;4.20;;;-0.20;99.90;-0.60;95814.00;;;;4936623;28;20440;-73
2021/12/01 02:12:13;;;;;;;5.90;3.90;;;-0.20;99.90;-0.60;95799.00;;;;4941999;28;20459;-73
2021/12/01 02:15:02;;;;;;;3.97;3.50;;;-0.20;99.90;-0.70;95814.00;;;;4943165;28;20420;-73
2021/12/01 02:17:51;;;;;;;11.17;4.00;;;-0.30;99.90;-1.00;95806.00;;;;4943809;28;20814;-72
2021/12/01 02:20:42;;;;;;;4.87;3.20;;;-0.30;99.90;-0.90;95809.00;;;;4940983;28;20829;-73
2021/12/01 02:23:32;;;;;;;4.30;3.43;;;-0.30;99.90;-0.70;95792.00;;;;4941075;28;20430;-73
2021/12/01 02:26:22;;;;;;;2.70;2.50;;;-0.30;99.90;-0.70;95796.00;;;;4941428;28;20962;-73
2021/12/01 02:29:15;;;;;;;4.20;2.83;;;-0.20;99.90;-0.80;95801.00;;;;4943724;28;20450;-73
2021/12/01 02:32:05;;;;;;;2.90;2.30;;;-0.30;99.90;-0.70;95793.00;;;;4947743;28;20454;-73
2021/12/01 02:34:54;;;;;;;2.67;1.93;;;-0.30;99.90;-0.70;95793.00;;;;4946532;29;20440;-73
2021/12/01 02:37:44;;;;;;;2.87;2.20;;;-0.30;99.90;-0.50;95806.00;;;;4946861;29;20425;-73
2021/12/01 02:40:34;;;;;;;2.47;2.27;;;-0.20;99.90;-0.60;95806.00;;;;4942599;28;20427;-73
2021/12/01 02:43:24;;;;;;;2.93;2.70;;;-0.10;99.90;-0.60;95813.00;;;;4947988;29;20811;-73
2021/12/01 02:46:13;;;;;;;2.73;2.40;;;-0.10;99.90;-0.90;95798.00;;;;4947236;29;20463;-73
2021/12/01 02:49:02;;;;;;;3.57;2.43;;;-0.20;99.90;-0.80;95816.00;;;;4943801;28;20456;-73
2021/12/01 02:51:54;;;;;;;2.37;1.87;;;-0.10;99.90;-0.60;95817.00;;;;4945065;28;20467;-74
2021/12/01 02:54:44;;;;;;;2.13;1.97;;;-0.30;99.90;-0.60;95810.00;;;;4951089;28;20438;-73
2021/12/01 02:57:47;;;;;;;2.27;1.70;;;-0.30;99.90;-0.70;95817.00;;;;4953457;29;20793;-73
2021/12/01 03:00:36;;;;;;;2.60;2.40;;;-0.20;99.90;-0.70;95807.00;;;;4944254;28;20578;-73
2021/12/01 03:03:25;;;;;;;3.13;2.60;;;-0.30;99.90;-1.00;95816.00;;;;4945406;29;20459;-73
2021/12/01 03:06:15;;;;;;;4.97;3.10;;;-0.30;99.90;-0.90;95799.00;;;;4944701;29;20463;-73
2021/12/01 03:09:06;;;;;;;3.00;2.67;;;-0.40;99.90;-1.00;95817.00;;;;4944046;29;20515;-73
2021/12/01 03:11:57;;;;;;;5.90;2.50;;;-0.40;99.90;-1.00;95813.00;;;;4945768;29;20452;-73
2021/12/01 03:14:46;;;;;;;2.10;1.80;;;-0.40;99.90;-1.10;95818.00;;;;4942996;28;20443;-73
2021/12/01 03:17:35;;;;;;;1.70;1.60;;;-0.40;99.90;-1.00;95821.00;;;;4944502;29;20488;-73
2021/12/01 03:20:24;;;;;;;6.57;2.60;;;-0.50;99.90;-0.90;95808.00;;;;4944821;28;20743;-72
2021/12/01 03:23:14;;;;;;;2.43;1.67;;;-0.50;99.90;-1.20;95822.00;;;;4945239;28;20789;-74
2021/12/01 03:26:03;;;;;;;1.97;1.87;;;-0.50;99.90;-1.20;95822.00;;;;4941387;29;20825;-73
2021/12/01 03:28:54;;;;;;;2.23;1.70;;;-0.50;99.90;-1.00;95828.00;;;;4942021;28;20462;-73
2021/12/01 03:31:43;;;;;;;1.83;1.73;;;-0.50;99.90;-0.80;95841.00;;;;4937483;29;20451;-72
2021/12/01 03:34:32;;;;;;;2.17;1.97;;;-0.40;99.90;-0.70;95836.00;;;;4944777;29;20872;-73
2021/12/01 03:37:21;;;;;;;1.73;1.43;;;-0.40;99.90;-0.80;95846.00;;;;4945495;29;20458;-73
2021/12/01 03:40:13;;;;;;;1.20;1.10;;;-0.40;99.90;-0.80;95840.00;;;;4942424;29;20448;-72
2021/12/01 03:43:02;;;;;;;1.20;1.13;;;-0.40;99.90;-1.00;95843.00;;;;4939752;29;20416;-73
2021/12/01 03:45:52;;;;;;;1.30;1.07;;;-0.40;99.90;-1.00;95841.00;;;;4946459;29;20427;-73
2021/12/01 03:48:41;;;;;;;1.50;1.40;;;-0.50;99.90;-0.90;95846.00;;;;4941491;28;20475;-73
2021/12/01 03:51:30;;;;;;;1.13;1.10;;;-0.50;99.90;-1.10;95835.00;;;;4943556;28;20855;-72
2021/12/01 03:54:20;;;;;;;1.50;1.40;;;-0.50;99.90;-1.10;95841.00;;;;4939127;29;20452;-72
2021/12/01 03:57:08;;;;;;;1.17;1.07;;;-0.60;99.90;-1.20;95846.00;;;;4944941;29;20432;-72
2021/12/01 03:59:57;;;;;;;2.00;1.23;;;-0.60;99.90;-1.40;95850.00;;;;4944747;29;20828;-73
2021/12/01 04:02:48;;;;;;;1.63;1.53;;;-0.60;99.90;-1.30;95842.00;;;;4945097;28;20451;-72
2021/12/01 04:05:37;;;;;;;2.80;1.70;;;-0.70;99.90;-1.30;95858.00;;;;4944957;29;20423;-73
2021/12/01 04:08:26;;;;;;;2.40;1.60;;;-0.70;99.90;-1.10;95849.00;;;;4942274;29;20463;-73
2021/12/01 04:11:15;;;;;;;1.93;1.80;;;-0.70;99.90;-1.10;95859.00;;;;4946375;28;20463;-72
2021/12/01 04:14:04;;;;;;;1.30;1.20;;;-0.70;99.90;-1.10;95857.00;;;;4943231;29;20538;-73
2021/12/01 04:16:54;;;;;;;1.53;1.43;;;-0.60;99.90;-1.00;95853.00;;;;4943733;29;20439;-72
2021/12/01 04:19:45;;;;;;;1.03;0.90;;;-0.60;99.90;-1.00;95867.00;;;;4944204;28;20451;-72
2021/12/01 04:22:34;;;;;;;1.10;1.07;;;-0.60;99.90;-1.00;95872.00;;;;4946106;28;20510;-73
2021/12/01 04:25:23;;;;;;;0.50;0.50;;;-0.50;99.90;-0.90;95868.00;;;;4942450;29;20436;-73
2021/12/01 04:28:13;;;;;;;0.80;0.80;;;-0.40;99.90;-0.70;95856.00;;;;4945083;29;20998;-73
2021/12/01 04:31:02;;;;;;;0.87;0.83;;;-0.30;99.90;-0.70;95846.00;;;;4938619;28;20459;-73
2021/12/01 04:33:51;;;;;;;0.83;0.80;;;-0.20;99.90;-0.70;95853.00;;;;4939200;29;20421;-73
2021/12/01 04:36:43;;;;;;;1.37;1.27;;;-0.20;99.90;-0.70;95853.00;;;;4939830;29;20450;-73
2021/12/01 04:39:32;;;;;;;1.00;0.90;;;-0.20;99.90;-0.70;95849.00;;;;4946295;28;20504;-73
2021/12/01 04:42:21;;;;;;;1.27;1.17;;;-0.20;99.90;-0.60;95858.00;;;;4941770;29;20552;-73
2021/12/01 04:45:15;;;;;;;1.00;0.93;;;-0.20;99.90;-0.30;95860.00;;;;4946010;29;20802;-73
2021/12/01 04:48:05;;;;;;;0.70;0.70;;;0.00;99.90;-0.30;95858.00;;;;4943544;29;20464;-73
2021/12/01 04:50:55;;;;;;;1.17;1.03;;;0.00;99.90;-0.40;95857.00;;;;4945842;28;20463;-73
2021/12/01 04:53:46;;;;;;;0.90;0.90;;;0.00;99.90;-0.40;95843.00;;;;4933813;28;20444;-73
2021/12/01 04:56:37;;;;;;;0.73;0.73;;;0.10;99.90;-0.50;95858.00;;;;4938387;29;20435;-73
2021/12/01 04:59:26;;;;;;;1.17;1.07;;;0.10;99.90;-0.40;95855.00;;;;4943901;29;20436;-73
2021/12/01 05:02:15;;;;;;;2.23;0.83;;;0.10;99.90;-0.50;95868.00;;;;4945043;28;20490;-73
2021/12/01 05:05:05;;;;;;;1.20;1.10;;;0.10;99.90;-0.30;95876.00;;;;4941563;29;21413;-75
2021/12/01 05:07:54;;;;;;;1.30;1.20;;;0.10;99.90;-0.20;95879.00;;;;4943847;29;20432;-77
2021/12/01 05:10:44;;;;;;;1.70;1.00;;;0.20;99.90;-0.10;95879.00;;;;4944096;29;20836;-75
2021/12/01 05:13:33;;;;;;;0.93;0.93;;;0.20;99.90;0.00;95866.00;;;;4942038;29;20432;-75
2021/12/01 05:16:23;;;;;;;1.90;1.40;;;0.30;99.90;0.10;95848.00;;;;4943482;29;20474;-76
2021/12/01 05:19:13;;;;;;;5.47;1.63;;;0.40;99.90;-0.10;95846.00;;;;4944917;29;20440;-75
2021/12/01 05:22:05;;;;;;;1.10;1.00;;;0.40;99.90;0.00;95856.00;;;;4943411;29;20458;-75
2021/12/01 05:24:55;;;;;;;1.13;0.97;;;0.40;99.90;0.00;95855.00;;;;4942860;29;20440;-75
2021/12/01 05:27:45;;;;;;;2.83;1.23;;;0.40;99.90;0.10;95866.00;;;;4942769;28;20443;-75
2021/12/01 05:30:34;;;;;;;1.57;1.40;;;0.40;99.90;0.10;95856.00;;;;4937629;28;20957;-75
2021/12/01 05:33:23;;;;;;;1.83;1.47;;;0.60;99.90;0.00;95856.00;;;;4931420;28;20436;-72
2021/12/01 05:36:13;;;;;;;1.77;1.10;;;0.40;99.90;0.10;95858.00;;;;4939173;28;20435;-75
2021/12/01 05:39:02;;;;;;;2.23;1.67;;;0.50;99.90;0.10;95854.00;;;;4938661;28;20436;-75
2021/12/01 05:41:52;;;;;;;3.17;2.23;;;0.50;99.90;0.00;95858.00;;;;4939383;28;20462;-74
2021/12/01 05:44:42;;;;;;;2.17;1.90;;;0.50;99.90;0.00;95841.00;;;;4933568;28;20443;-75
2021/12/01 05:47:31;;;;;;;5.13;1.90;;;0.50;99.90;0.10;95855.00;;;;4942165;28;20430;-75
2021/12/01 05:50:20;;;;;;;1.87;1.63;;;0.50;99.90;0.20;95856.00;;;;4939435;28;20475;-75
2021/12/01 05:53:09;;;;;;;1.77;1.57;;;0.50;99.90;0.10;95843.00;;;;4943091;28;20420;-75
2021/12/01 05:55:58;;;;;;;1.37;1.27;;;0.50;99.90;-0.10;95846.00;;;;4940495;28;20443;-74
2021/12/01 05:58:47;;;;;;;2.10;1.20;;;0.50;99.90;0.00;95852.00;;;;4945484;28;20447;-73
2021/12/01 06:01:38;;;;;;;1.43;1.30;;;0.50;99.90;0.10;95853.00;;;;4943054;28;20463;-73
2021/12/01 06:04:27;;;;;;;4.10;1.20;;;0.50;99.90;-0.10;95857.00;;;;4952082;28;20435;-74
2021/12/01 06:07:16;;;;;;;0.87;0.87;;;0.50;99.90;0.00;95867.00;;;;4955939;28;20819;-73
2021/12/01 06:10:07;;;;;;;1.10;0.90;;;0.50;99.90;0.10;95862.00;;;;4950705;28;20467;-73
2021/12/01 06:12:56;;;;;;;1.50;1.27;;;0.50;99.90;0.10;95873.00;;;;4942771;28;20448;-73
2021/12/01 06:15:45;;;;;;;2.63;2.43;;;0.50;99.90;0.10;95859.00;;;;4942498;28;20437;-73
2021/12/01 06:18:36;;;;;;;3.03;2.47;;;0.50;99.90;0.10;95864.00;;;;4944228;29;20448;-73
2021/12/01 06:21:24;;;;;;;1.50;1.40;;;0.50;99.90;0.20;95863.00;;;;4944338;28;20451;-73
2021/12/01 06:24:14;;;;;;;1.33;1.23;;;0.60;99.90;0.20;95858.00;;;;4943593;28;20431;-75
2021/12/01 06:27:03;;;;;;;2.80;2.17;;;0.60;99.90;0.00;95848.00;;;;4948461;28;20435;-75
2021/12/01 06:29:52;;;;;;;0.80;0.70;;;0.60;99.90;-0.30;95861.00;;;;4924324;29;20865;-76
2021/12/01 06:32:41;;;;;;;1.40;1.30;;;0.50;99.90;0.00;95870.00;;;;4923300;29;20472;-76
2021/12/01 06:35:32;;;;;;;12.53;1.73;;;0.50;99.90;0.20;95872.00;;;;4923167;29;20944;-76
2021/12/01 06:38:21;;;;;;;1.97;1.50;;;0.60;99.90;0.30;95878.00;;;;4929333;29;20444;-76
2021/12/01 06:41:11;;;;;;;0.73;0.73;;;0.60;99.90;0.30;95874.00;;;;4923331;29;20460;-75
2021/12/01 06:44:00;;;;;;;1.93;1.67;;;0.60;99.90;0.20;95868.00;;;;4923501;29;20452;-76
2021/12/01 06:46:49;;;;;;;4.60;1.70;;;0.60;99.90;0.20;95872.00;;;;4921286;29;20437;-76
2021/12/01 06:49:38;;;;;;;2.10;1.50;;;0.60;99.90;0.40;95878.00;;;;4921237;29;20472;-76
2021/12/01 06:52:29;;;;;;;2.07;1.50;;;0.70;99.90;0.40;95876.00;;;;4925052;29;20460;-76
2021/12/01 06:55:20;;;;;;;4.43;1.63;;;0.70;99.90;0.50;95855.00;;;;4922967;29;20440;-74
2021/12/01 06:58:09;;;;;;;2.03;1.37;;;0.80;99.90;0.50;95858.00;;;;4922280;29;20968;-73
2021/12/01 07:00:58;;;;;;;1.87;1.10;;;0.80;99.90;0.30;95873.00;;;;4925553;29;20457;-74
2021/12/01 07:03:47;;;;;;;1.30;1.20;;;0.80;99.90;0.40;95857.00;;;;4922686;29;20437;-73
2021/12/01 07:06:36;;;;;;;1.90;1.30;;;0.80;99.90;0.40;95859.00;;;;4919877;29;20442;-73
2021/12/01 07:09:27;;;;;;;3.87;3.00;;;0.80;99.90;0.20;95863.00;;;;4925026;29;21011;-74
2021/12/01 07:12:16;;;;;;;3.67;2.63;;;0.80;99.90;0.40;95868.00;;;;4924863;29;20464;-73
2021/12/01 07:15:06;;;;;;;2.90;2.63;;;0.80;99.90;0.50;95853.00;;;;4917378;29;20441;-74
2021/12/01 07:17:55;;;;;;;4.97;2.60;;;0.90;99.90;0.40;95868.00;;;;4922295;29;20827;-74
2021/12/01 07:20:45;;;;;;;3.53;2.60;;;0.90;99.90;0.30;95849.00;;;;4920581;29;20437;-74
2021/12/01 07:23:35;;;;;;;3.03;2.43;;;0.90;99.90;0.40;95851.00;;;;4925554;29;20425;-73
2021/12/01 07:26:25;;;;;;;5.43;3.43;;;0.80;99.90;0.30;95846.00;;;;4925499;29;20464;-72
2021/12/01 07:29:15;;;;;;;2.20;2.00;;;0.80;99.90;0.10;95850.00;;;;4934180;29;20808;-74
2021/12/01 07:32:06;;;;;;;6.00;3.20;;;0.80;99.90;0.50;95848.00;;;;4944444;28;20490;-75
2021/12/01 07:34:56;;;;;;;4.17;2.60;;;0.80;99.90;0.70;95850.00;;;;4941229;28;20452;-74
2021/12/01 07:37:46;;;;;;;3.73;3.03;;;0.90;99.90;0.70;95849.00;;;;4941043;28;20432;-73
2021/12/01 07:40:35;;;;;;;2.83;2.63;;;1.00;99.90;0.70;95838.00;;;;4940361;28;20450;-73
2021/12/01 07:43:25;;;;;;;2.53;2.33;;;1.10;99.90;0.90;95840.00;;;;4942077;29;20448;-73
2021/12/01 07:46:14;;;;;;;3.77;2.30;;;1.10;99.90;0.60;95832.00;;;;4940848;28;20756;-73
2021/12/01 07:49:03;;;;;;;5.20;2.10;;;1.10;99.90;0.50;95826.00;;;;4936174;28;20433;-72
2021/12/01 07:51:53;;;;;;;2.73;2.53;;;1.10;99.90;0.80;95827.00;;;;4941329;28;20448;-73
2021/12/01 07:54:41;;;;;;;2.73;2.43;;;1.10;99.90;0.70;95830.00;;;;4948856;28;20458;-78
2021/12/01 07:57:30;;;;;;;5.13;3.93;;;1.20;99.90;0.70;95831.00;;;;4943649;28;20742;-76
2021/12/01 08:00:22;;;;;;;3.90;3.20;;;1.10;99.90;0.90;95837.00;;;;4945544;28;20428;-75
2021/12/01 08:03:11;;;;;;;1.70;1.60;;;1.20;99.90;0.70;95837.00;;;;4935694;28;20441;-75
2021/12/01 08:06:00;;;;;;;3.40;2.60;;;1.20;99.90;0.90;95833.00;;;;4946028;28;20807;-75
2021/12/01 08:08:49;;;;;;;2.47;2.13;;;1.30;99.90;1.00;95830.00;;;;4945206;28;20431;-76
2021/12/01 08:11:39;;;;;;;2.30;2.10;;;1.30;99.90;1.10;95825.00;;;;4940036;28;20516;-75
2021/12/01 08:14:28;;;;;;;1.73;1.63;;;1.30;99.90;1.20;95820.00;;;;4933614;28;20455;-76
2021/12/01 08:17:18;;;;;;;2.47;1.63;;;1.40;99.90;1.40;95825.00;;;;4945479;28;20440;-76
2021/12/01 08:20:09;;;;;;;2.70;1.37;;;1.50;99.90;1.30;95820.00;;;;4942838;28;20425;-76
2021/12/01 08:22:57;;;;;;;5.00;1.60;;;1.50;99.90;1.50;95830.00;;;;4942156;29;20434;-75
2021/12/01 08:25:46;;;;;;;1.70;1.50;;;1.60;99.90;1.70;95849.00;;;;4943383;29;20448;-75
2021/12/01 08:28:35;;;;;;;1.60;1.50;;;1.70;99.90;1.80;95836.00;;;;4941808;28;20443;-76
2021/12/01 08:31:25;;;;;;;1.30;1.20;;;1.80;99.90;1.80;95821.00;;;;4941518;28;20484;-76
2021/12/01 08:34:15;;;;;;;1.57;1.47;;;1.90;99.90;1.80;95809.00;;;;4938966;29;20431;-75
2021/12/01 08:37:07;;;;;;;1.63;1.53;;;1.90;99.90;1.50;95805.00;;;;4940996;29;20451;-75
2021/12/01 08:39:56;;;;;;;2.27;2.00;;;2.00;99.90;1.20;95803.00;;;;4941880;28;20594;-76
2021/12/01 08:42:47;;;;;;;1.97;1.40;;;1.80;99.90;1.30;95819.00;;;;4940110;28;20455;-75
2021/12/01 08:45:36;;;;;;;1.73;1.50;;;1.80;99.90;1.10;95823.00;;;;4940132;28;20435;-75
2021/12/01 08:48:25;;;;;;;1.73;1.63;;;1.80;99.90;1.60;95815.00;;;;4943680;28;20432;-74
2021/12/01 08:51:15;;;;;;;2.70;2.50;;;1.80;99.90;1.90;95799.00;;;;4939135;28;20478;-75
2021/12/01 08:54:05;;;;;;;2.00;1.67;;;1.90;99.90;2.20;95783.00;;;;4942841;28;20425;-74
2021/12/01 08:56:55;;;;;;;2.07;1.90;;;2.10;99.90;2.30;95797.00;;;;4943274;28;20439;-75
2021/12/01 08:59:44;;;;;;;2.23;2.03;;;2.30;99.90;2.50;95797.00;;;;4943029;28;20442;-77
2021/12/01 09:02:34;;;;;;;1.83;1.47;;;2.40;99.90;2.70;95776.00;;;;4942117;28;20455;-77
2021/12/01 09:05:23;;;;;;;2.00;1.80;;;2.50;99.90;2.90;95791.00;;;;4945171;28;20454;-77
2021/12/01 09:08:14;;;;;;;4.33;3.30;;;2.70;99.90;2.70;95770.00;;;;4944701;28;20432;-77
2021/12/01 09:11:05;;;;;;;3.63;2.97;;;2.80;99.90;3.00;95773.00;;;;4939730;28;20468;-77
2021/12/01 09:13:54;;;;;;;2.60;2.40;;;2.90;99.90;3.00;95769.00;;;;4942744;28;20428;-76
2021/12/01 09:16:43;;;;;;;2.43;1.77;;;3.00;99.90;3.30;95761.00;;;;4941348;28;21005;-77
2021/12/01 09:19:32;;;;;;;3.53;2.40;;;3.10;99.90;3.10;95755.00;;;;4951922;28;20428;-77
2021/12/01 09:22:21;;;;;;;2.40;2.10;;;3.20;99.90;3.00;95750.00;;;;4962890;28;20452;-77
2021/12/01 09:25:12;;;;;;;4.43;2.77;;;3.20;99.90;3.10;95743.00;;;;4941687;28;20451;-75
2021/12/01 09:28:01;;;;;;;7.47;2.90;;;3.20;99.90;2.70;95728.00;;;;4942035;28;20539;-76
2021/12/01 09:30:51;;;;;;;15.77;13.90;;;3.20;99.90;2.50;95739.00;;;;4938087;28;20471;-77
2021/12/01 09:33:40;;;;;;;35.50;19.63;;;3.00;99.90;2.30;95731.00;;;;4941836;28;20208;-77
2021/12/01 09:36:30;;;;;;;22.20;13.17;;;2.90;99.90;2.70;95730.00;;;;4938315;28;20425;-77
2021/12/01 09:39:19;;;;;;;16.37;10.30;;;2.90;99.90;2.70;95714.00;;;;4944002;28;20812;-75
2021/12/01 09:42:10;;;;;;;10.90;6.50;;;2.90;99.90;2.80;95719.00;;;;4945670;28;20463;-76
2021/12/01 09:44:59;;;;;;;13.63;8.97;;;2.90;99.90;2.90;95719.00;;;;4947307;28;20438;-76
2021/12/01 09:47:48;;;;;;;7.60;6.13;;;3.00;99.90;2.80;95707.00;;;;4946814;28;20442;-75
2021/12/01 09:50:37;;;;;;;20.87;11.80;;;3.00;99.90;3.00;95701.00;;;;4946885;28;20491;-76
2021/12/01 09:53:27;;;;;;;15.30;10.90;;;3.10;99.90;3.10;95698.00;;;;4947423;28;21128;-75
2021/12/01 09:56:16;;;;;;;18.47;11.97;;;3.10;99.90;2.70;95695.00;;;;4943657;28;20794;-76
2021/12/01 09:59:06;;;;;;;11.67;7.20;;;3.50;99.90;2.50;95689.00;;;;4943592;28;20428;-76
2021/12/01 10:01:55;;;;;;;4.13;3.63;;;3.10;99.90;2.20;95702.00;;;;4943341;28;20449;-76
2021/12/01 10:04:44;;;;;;;9.77;8.03;;;3.00;99.90;2.40;95714.00;;;;4949230;28;20435;-75
2021/12/01 10:07:34;;;;;;;6.97;5.70;;;2.90;99.90;2.70;95711.00;;;;4944911;28;20431;-77
2021/12/01 10:10:23;;;;;;;10.07;5.53;;;2.90;99.90;3.10;95705.00;;;;4944045;28;20444;-77
2021/12/01 10:13:12;;;;;;;8.30;6.13;;;3.00;99.90;3.00;95704.00;;;;4948786;28;20436;-76
2021/12/01 10:16:06;;;;;;;9.97;6.07;;;3.10;99.90;3.40;95705.00;;;;4946414;28;20967;-76
2021/12/01 10:18:57;;;;;;;13.13;8.73;;;3.30;99.90;3.30;95704.00;;;;4941981;28;20649;-77
2021/12/01 10:21:48;;;;;;;4.77;3.73;;;3.40;99.90;3.30;95697.00;;;;4945060;28;20451;-77
2021/12/01 10:24:45;;;;;;;3.93;3.10;;;3.40;99.90;3.40;95694.00;;;;4936052;28;20497;-78
2021/12/01 10:27:39;;;;;;;3.77;2.47;;;3.50;99.90;3.40;95706.00;;;;4937695;28;20459;-77
2021/12/01 10:30:43;;;;;;;6.07;3.10;;;3.60;99.90;3.50;95702.00;;;;4940274;28;20442;-77
2021/12/01 10:33:33;;;;;;;3.10;2.63;;;3.60;99.90;3.70;95716.00;;;;4944638;28;20434;-77
2021/12/01 10:36:27;;;;;;;4.07;3.13;;;3.70;99.90;4.00;95716.00;;;;4944819;28;20463;-77
2021/12/01 10:39:17;;;;;;;4.67;2.57;;;3.80;99.90;4.30;95715.00;;;;4943832;28;20652;-77
2021/12/01 10:42:08;;;;;;;4.63;3.17;;;3.90;99.90;4.60;95697.00;;;;4949675;28;20467;-78
2021/12/01 10:45:00;;;;;;;4.30;3.20;;;4.10;99.90;4.80;95695.00;;;;4939285;28;20219;-77
2021/12/01 10:47:50;;;;;;;4.23;2.10;;;4.30;99.90;5.00;95681.00;;;;4947952;28;20212;-77
2021/12/01 10:50:43;;;;;;;5.33;3.37;;;4.50;99.90;5.10;95681.00;;;;4943987;28;20240;-78
2021/12/01 10:53:33;;;;;;;6.50;3.60;;;4.70;99.90;5.00;95682.00;;;;4941397;28;20215;-77
2021/12/01 10:56:22;;;;;;;5.43;4.07;;;4.80;99.90;5.30;95677.00;;;;4951072;28;20203;-77
2021/12/01 10:59:13;;;;;;;4.43;3.43;;;4.90;99.90;5.50;95677.00;;;;4950868;28;20235;-77
2021/12/01 11:02:11;;;;;;;3.83;3.40;;;5.10;99.90;5.10;95662.00;;;;4947681;28;20226;-79
2021/12/01 11:05:00;;;;;;;2.37;2.17;;;5.20;99.90;4.50;95666.00;;;;4948916;28;20214;-78
2021/12/01 11:07:50;;;;;;;3.47;3.20;;;5.10;99.90;4.80;95656.00;;;;4943309;28;20208;-76
2021/12/01 11:10:40;;;;;;;4.47;3.30;;;5.00;99.90;5.20;95660.00;;;;4942787;28;20232;-78
2021/12/01 11:13:28;;;;;;;3.90;2.90;;;5.10;99.90;5.40;95655.00;;;;4944815;28;20216;-78
2021/12/01 11:16:19;;;;;;;3.67;3.37;;;5.20;99.90;5.70;95659.00;;;;4944792;28;20212;-78
2021/12/01 11:19:13;;;;;;;4.23;3.17;;;5.30;99.90;6.10;95639.00;;;;4944403;28;20212;-78
2021/12/01 11:22:36;;;;;;;4.80;3.77;;;5.50;99.90;6.90;95623.00;;;;4944699;28;20227;-78
2021/12/01 11:25:26;;;;;;;6.53;3.53;;;6.40;99.90;8.20;95648.00;;;;4941223;28;20704;-80
2021/12/01 11:28:19;;;;;;;6.13;2.70;;;6.70;99.90;7.20;95630.00;;;;4937795;28;20211;-78
2021/12/01 11:31:13;;;;;;;4.33;3.57;;;7.20;99.90;6.40;95625.00;;;;4945495;28;20698;-78
2021/12/01 11:34:05;;;;;;;5.90;3.93;;;8.30;99.90;6.00;95623.00;;;;4944261;28;20200;-78
2021/12/01 11:36:54;;;;;;;4.80;3.30;;;6.90;99.90;5.70;95614.00;;;;4945715;28;20210;-80
2021/12/01 11:39:43;;;;;;;4.30;3.23;;;6.50;99.90;5.90;95619.00;;;;4943321;28;20215;-81
2021/12/01 11:42:33;;;;;;;6.90;4.00;;;6.40;99.90;5.90;95615.00;;;;4942821;28;20228;-76
2021/12/01 11:45:22;;;;;;;5.37;3.17;;;6.20;99.90;5.80;95594.00;;;;4944049;28;20205;-78
2021/12/01 11:48:15;;;;;;;3.50;2.77;;;6.20;99.90;5.00;95588.00;;;;4947953;28;20680;-77
2021/12/01 11:51:14;;;;;;;3.13;2.77;;;5.90;99.90;4.50;95568.00;;;;4942861;28;20232;-80
2021/12/01 11:54:10;;;;;;;5.27;2.73;;;5.60;99.90;5.10;95528.00;;;;4942796;28;20211;-76
2021/12/01 11:57:02;;;;;;;5.73;4.17;;;5.60;99.90;5.90;95547.00;;;;4945364;28;20208;-77
2021/12/01 11:59:52;;;;;;;5.23;3.50;;;6.20;99.90;6.90;95549.00;;;;4949340;28;20211;-77
2021/12/01 12:02:41;;;;;;;3.47;3.03;;;6.70;99.90;8.10;95575.00;;;;4949645;28;20235;-78
2021/12/01 12:05:30;;;;;;;4.63;3.33;;;7.30;99.90;8.30;95601.00;;;;4942724;28;20236;-77
2021/12/01 12:08:57;;;;;;;6.53;4.27;;;7.70;99.90;8.80;95572.00;;;;4940335;28;20296;-77
2021/12/01 12:11:48;;;;;;;5.77;2.97;;;8.10;99.90;9.50;95577.00;;;;4939698;28;20220;-76
2021/12/01 12:14:40;;;;;;;5.93;3.30;;;8.80;99.90;10.80;95560.00;;;;4941593;28;20685;-77
2021/12/01 12:17:38;;;;;;;5.03;3.83;;;9.60;99.90;12.30;95571.00;;;;4942275;28;20670;-77
2021/12/01 12:20:29;;;;;;;6.05;3.85;;;10.90;99.90;12.40;95612.00;;;;4942585;28;20410;-76
2021/12/01 12:23:19;;;;;;;6.80;3.30;;;11.90;99.90;11.50;95596.00;;;;4942228;28;20231;-78
2021/12/01 12:26:11;;;;;;;8.07;3.90;;;12.10;99.90;10.60;95579.00;;;;4946062;28;20204;-78
2021/12/01 12:29:07;;;;;;;6.07;3.77;;;11.80;99.90;11.60;95555.00;;;;4943168;28;20215;-78
2021/12/01 12:32:18;;;;;;;3.40;2.93;;;11.70;99.90;12.90;95548.00;;;;4950357;28;20224;-78
2021/12/01 12:35:12;;;;;;;8.67;4.13;;;12.40;99.90;13.60;95558.00;;;;4946616;28;20224;-78
2021/12/01 12:38:09;;;;;;;4.50;3.27;;;13.20;99.90;13.50;95556.00;;;;4945532;28;20233;-78
2021/12/01 12:41:10;;;;;;;8.33;3.23;;;13.90;99.90;14.00;95532.00;;;;4943885;28;20239;-78
2021/12/01 12:44:29;;;;;;;3.57;3.07;;;14.30;99.90;14.90;95548.00;;;;4944017;28;20207;-77
2021/12/01 12:47:45;;;;;;;4.60;2.63;;;14.80;99.90;15.40;95520.00;;;;4947074;28;20219;-77
2021/12/01 12:50:35;;;;;;;4.37;3.33;;;15.40;97.90;16.00;95518.00;;;;4942924;28;20219;-78
2021/12/01 12:53:24;;;;;;;5.00;2.90;;;16.10;94.30;16.10;95505.00;;;;4945782;28;20611;-77